sensor_id;sensor_type;location;lat;lon;timestamp;P1;durP1;ratioP1;P2;durP2;ratioP2
52104;SDS011;38103;42.776;23.112;2024-03-22T00:00:33;3.28;;;2.60;;
52104;SDS011;38103;42.776;23.112;2024-03-22T00:02:59;4.07;;;2.38;;
52104;SDS011;38103;42.776;23.112;2024-03-22T00:05:24;9.63;;;4.82;;
52104;SDS011;38103;42.776;23.112;2024-03-22T00:07:50;10.25;;;3.97;;
52104;SDS011;38103;42.776;23.112;2024-03-22T00:10:15;7.47;;;4.07;;
52104;SDS011;38103;42.776;23.112;2024-03-22T00:12:41;16.50;;;7.78;;
52104;SDS011;38103;42.776;23.112;2024-03-22T00:15:06;16.45;;;7.20;;
52104;SDS011;38103;42.776;23.112;2024-03-22T00:17:32;6.60;;;3.25;;
52104;SDS011;38103;42.776;23.112;2024-03-22T00:19:58;5.35;;;3.22;;
52104;SDS011;38103;42.776;23.112;2024-03-22T00:22:24;6.85;;;3.78;;
52104;SDS011;38103;42.776;23.112;2024-03-22T00:24:49;7.22;;;4.18;;
52104;SDS011;38103;42.776;23.112;2024-03-22T00:27:14;6.50;;;3.40;;
52104;SDS011;38103;42.776;23.112;2024-03-22T00:29:40;6.18;;;3.00;;
52104;SDS011;38103;42.776;23.112;2024-03-22T00:32:05;3.53;;;2.42;;
52104;SDS011;38103;42.776;23.112;2024-03-22T00:34:32;4.85;;;3.40;;
52104;SDS011;38103;42.776;23.112;2024-03-22T00:36:57;7.28;;;3.92;;
52104;SDS011;38103;42.776;23.112;2024-03-22T00:39:23;9.18;;;4.88;;
52104;SDS011;38103;42.776;23.112;2024-03-22T00:41:48;5.50;;;3.47;;
52104;SDS011;38103;42.776;23.112;2024-03-22T00:44:13;4.82;;;2.70;;
52104;SDS011;38103;42.776;23.112;2024-03-22T00:46:39;4.43;;;2.65;;
52104;SDS011;38103;42.776;23.112;2024-03-22T00:49:04;3.65;;;2.47;;
52104;SDS011;38103;42.776;23.112;2024-03-22T00:51:30;5.32;;;2.95;;
52104;SDS011;38103;42.776;23.112;2024-03-22T00:53:55;6.50;;;3.72;;
52104;SDS011;38103;42.776;23.112;2024-03-22T00:56:20;3.78;;;3.30;;
52104;SDS011;38103;42.776;23.112;2024-03-22T00:58:45;4.82;;;2.88;;
52104;SDS011;38103;42.776;23.112;2024-03-22T01:01:11;5.32;;;2.95;;
52104;SDS011;38103;42.776;23.112;2024-03-22T01:03:36;4.80;;;2.88;;
52104;SDS011;38103;42.776;23.112;2024-03-22T01:06:02;5.40;;;3.03;;
52104;SDS011;38103;42.776;23.112;2024-03-22T01:08:27;4.13;;;2.50;;
52104;SDS011;38103;42.776;23.112;2024-03-22T01:10:53;4.10;;;2.53;;
52104;SDS011;38103;42.776;23.112;2024-03-22T01:13:18;4.13;;;2.55;;
52104;SDS011;38103;42.776;23.112;2024-03-22T01:15:44;4.97;;;2.63;;
52104;SDS011;38103;42.776;23.112;2024-03-22T01:18:11;6.00;;;2.90;;
52104;SDS011;38103;42.776;23.112;2024-03-22T01:20:36;5.45;;;3.33;;
52104;SDS011;38103;42.776;23.112;2024-03-22T01:23:02;7.15;;;3.35;;
52104;SDS011;38103;42.776;23.112;2024-03-22T01:25:27;7.63;;;2.50;;
52104;SDS011;38103;42.776;23.112;2024-03-22T01:27:53;4.55;;;2.95;;
52104;SDS011;38103;42.776;23.112;2024-03-22T01:30:20;6.78;;;2.65;;
52104;SDS011;38103;42.776;23.112;2024-03-22T01:32:45;5.03;;;2.40;;
52104;SDS011;38103;42.776;23.112;2024-03-22T01:35:10;3.00;;;2.28;;
52104;SDS011;38103;42.776;23.112;2024-03-22T01:37:36;8.45;;;3.30;;
52104;SDS011;38103;42.776;23.112;2024-03-22T01:40:02;8.77;;;4.00;;
52104;SDS011;38103;42.776;23.112;2024-03-22T01:42:28;5.03;;;2.50;;
52104;SDS011;38103;42.776;23.112;2024-03-22T01:44:53;5.03;;;2.92;;
52104;SDS011;38103;42.776;23.112;2024-03-22T01:47:18;3.55;;;2.88;;
52104;SDS011;38103;42.776;23.112;2024-03-22T01:49:44;4.03;;;1.95;;
52104;SDS011;38103;42.776;23.112;2024-03-22T01:52:09;3.55;;;2.80;;
52104;SDS011;38103;42.776;23.112;2024-03-22T01:54:35;6.70;;;2.75;;
52104;SDS011;38103;42.776;23.112;2024-03-22T01:57:00;3.40;;;2.28;;
52104;SDS011;38103;42.776;23.112;2024-03-22T01:59:26;8.80;;;2.95;;
52104;SDS011;38103;42.776;23.112;2024-03-22T02:01:53;6.65;;;2.60;;
52104;SDS011;38103;42.776;23.112;2024-03-22T02:04:18;9.13;;;2.67;;
52104;SDS011;38103;42.776;23.112;2024-03-22T02:06:44;5.45;;;2.45;;
52104;SDS011;38103;42.776;23.112;2024-03-22T02:09:09;4.00;;;2.20;;
52104;SDS011;38103;42.776;23.112;2024-03-22T02:11:35;7.40;;;2.47;;
52104;SDS011;38103;42.776;23.112;2024-03-22T02:14:01;3.00;;;2.30;;
52104;SDS011;38103;42.776;23.112;2024-03-22T02:16:26;5.40;;;2.67;;
52104;SDS011;38103;42.776;23.112;2024-03-22T02:18:52;3.80;;;3.08;;
52104;SDS011;38103;42.776;23.112;2024-03-22T02:21:17;4.28;;;3.17;;
52104;SDS011;38103;42.776;23.112;2024-03-22T02:23:42;7.80;;;4.72;;
52104;SDS011;38103;42.776;23.112;2024-03-22T02:26:08;21.48;;;8.43;;
52104;SDS011;38103;42.776;23.112;2024-03-22T02:28:34;7.65;;;4.60;;
52104;SDS011;38103;42.776;23.112;2024-03-22T02:31:00;5.22;;;2.60;;
52104;SDS011;38103;42.776;23.112;2024-03-22T02:33:27;3.17;;;1.83;;
52104;SDS011;38103;42.776;23.112;2024-03-22T02:35:52;4.78;;;2.60;;
52104;SDS011;38103;42.776;23.112;2024-03-22T02:38:18;4.20;;;2.30;;
52104;SDS011;38103;42.776;23.112;2024-03-22T02:40:44;3.90;;;3.00;;
52104;SDS011;38103;42.776;23.112;2024-03-22T02:43:10;5.35;;;2.55;;
52104;SDS011;38103;42.776;23.112;2024-03-22T02:45:36;4.15;;;2.38;;
52104;SDS011;38103;42.776;23.112;2024-03-22T02:48:01;2.50;;;2.30;;
52104;SDS011;38103;42.776;23.112;2024-03-22T02:50:27;8.05;;;3.25;;
52104;SDS011;38103;42.776;23.112;2024-03-22T02:52:52;6.20;;;2.70;;
52104;SDS011;38103;42.776;23.112;2024-03-22T02:55:18;2.92;;;2.20;;
52104;SDS011;38103;42.776;23.112;2024-03-22T02:57:43;5.15;;;2.08;;
52104;SDS011;38103;42.776;23.112;2024-03-22T03:00:09;5.88;;;2.90;;
52104;SDS011;38103;42.776;23.112;2024-03-22T03:02:35;5.07;;;3.47;;
52104;SDS011;38103;42.776;23.112;2024-03-22T03:05:01;4.90;;;2.58;;
52104;SDS011;38103;42.776;23.112;2024-03-22T03:07:26;4.53;;;2.55;;
52104;SDS011;38103;42.776;23.112;2024-03-22T03:09:54;5.63;;;3.28;;
52104;SDS011;38103;42.776;23.112;2024-03-22T03:12:20;3.08;;;2.67;;
52104;SDS011;38103;42.776;23.112;2024-03-22T03:14:45;4.32;;;2.53;;
52104;SDS011;38103;42.776;23.112;2024-03-22T03:17:10;5.35;;;2.67;;
52104;SDS011;38103;42.776;23.112;2024-03-22T03:19:36;5.00;;;2.63;;
52104;SDS011;38103;42.776;23.112;2024-03-22T03:22:02;4.00;;;2.83;;
52104;SDS011;38103;42.776;23.112;2024-03-22T03:24:27;4.47;;;2.97;;
52104;SDS011;38103;42.776;23.112;2024-03-22T03:26:53;8.40;;;2.97;;
52104;SDS011;38103;42.776;23.112;2024-03-22T03:29:18;5.03;;;3.08;;
52104;SDS011;38103;42.776;23.112;2024-03-22T03:31:44;6.03;;;3.13;;
52104;SDS011;38103;42.776;23.112;2024-03-22T03:34:09;6.05;;;3.22;;
52104;SDS011;38103;42.776;23.112;2024-03-22T03:36:35;7.00;;;3.05;;
52104;SDS011;38103;42.776;23.112;2024-03-22T03:39:00;2.97;;;2.50;;
52104;SDS011;38103;42.776;23.112;2024-03-22T03:41:25;8.73;;;3.22;;
52104;SDS011;38103;42.776;23.112;2024-03-22T03:43:51;4.43;;;2.47;;
52104;SDS011;38103;42.776;23.112;2024-03-22T03:46:16;6.50;;;2.83;;
52104;SDS011;38103;42.776;23.112;2024-03-22T03:48:42;6.97;;;3.42;;
52104;SDS011;38103;42.776;23.112;2024-03-22T03:51:07;5.57;;;2.88;;
52104;SDS011;38103;42.776;23.112;2024-03-22T03:53:32;4.97;;;2.75;;
52104;SDS011;38103;42.776;23.112;2024-03-22T03:55:58;4.65;;;2.97;;
52104;SDS011;38103;42.776;23.112;2024-03-22T03:58:23;4.78;;;2.80;;
52104;SDS011;38103;42.776;23.112;2024-03-22T04:00:49;4.05;;;2.90;;
52104;SDS011;38103;42.776;23.112;2024-03-22T04:03:14;4.07;;;2.92;;
52104;SDS011;38103;42.776;23.112;2024-03-22T04:05:39;5.35;;;2.58;;
52104;SDS011;38103;42.776;23.112;2024-03-22T04:08:05;4.65;;;2.90;;
52104;SDS011;38103;42.776;23.112;2024-03-22T04:10:30;5.60;;;3.25;;
52104;SDS011;38103;42.776;23.112;2024-03-22T04:12:55;6.78;;;2.90;;
52104;SDS011;38103;42.776;23.112;2024-03-22T04:15:21;4.18;;;2.60;;
52104;SDS011;38103;42.776;23.112;2024-03-22T04:17:46;6.15;;;2.90;;
52104;SDS011;38103;42.776;23.112;2024-03-22T04:20:12;5.40;;;3.00;;
52104;SDS011;38103;42.776;23.112;2024-03-22T04:22:37;3.92;;;2.67;;
52104;SDS011;38103;42.776;23.112;2024-03-22T04:25:03;5.55;;;2.13;;
52104;SDS011;38103;42.776;23.112;2024-03-22T04:27:28;8.65;;;3.28;;
52104;SDS011;38103;42.776;23.112;2024-03-22T04:29:54;4.07;;;2.47;;
52104;SDS011;38103;42.776;23.112;2024-03-22T04:32:19;5.55;;;3.20;;
52104;SDS011;38103;42.776;23.112;2024-03-22T04:34:44;7.72;;;3.88;;
52104;SDS011;38103;42.776;23.112;2024-03-22T04:37:10;9.00;;;4.43;;
52104;SDS011;38103;42.776;23.112;2024-03-22T04:39:37;4.25;;;3.25;;
52104;SDS011;38103;42.776;23.112;2024-03-22T04:42:02;5.43;;;3.75;;
52104;SDS011;38103;42.776;23.112;2024-03-22T04:44:29;12.15;;;7.63;;
52104;SDS011;38103;42.776;23.112;2024-03-22T04:46:54;13.10;;;5.60;;
52104;SDS011;38103;42.776;23.112;2024-03-22T04:49:19;4.53;;;2.47;;
52104;SDS011;38103;42.776;23.112;2024-03-22T04:51:45;8.95;;;3.67;;
52104;SDS011;38103;42.776;23.112;2024-03-22T04:54:10;6.60;;;3.95;;
52104;SDS011;38103;42.776;23.112;2024-03-22T04:56:36;5.82;;;2.92;;
52104;SDS011;38103;42.776;23.112;2024-03-22T04:59:01;18.58;;;3.78;;
52104;SDS011;38103;42.776;23.112;2024-03-22T05:01:26;6.68;;;4.07;;
52104;SDS011;38103;42.776;23.112;2024-03-22T05:03:52;8.07;;;3.60;;
52104;SDS011;38103;42.776;23.112;2024-03-22T05:06:17;5.93;;;4.18;;
52104;SDS011;38103;42.776;23.112;2024-03-22T05:08:43;5.80;;;3.58;;
52104;SDS011;38103;42.776;23.112;2024-03-22T05:11:08;5.70;;;2.63;;
52104;SDS011;38103;42.776;23.112;2024-03-22T05:13:34;5.85;;;4.07;;
52104;SDS011;38103;42.776;23.112;2024-03-22T05:15:59;4.40;;;2.63;;
52104;SDS011;38103;42.776;23.112;2024-03-22T05:18:24;5.40;;;3.45;;
52104;SDS011;38103;42.776;23.112;2024-03-22T05:20:50;6.40;;;3.38;;
52104;SDS011;38103;42.776;23.112;2024-03-22T05:23:15;3.63;;;2.80;;
52104;SDS011;38103;42.776;23.112;2024-03-22T05:25:41;7.80;;;3.63;;
52104;SDS011;38103;42.776;23.112;2024-03-22T05:28:07;4.00;;;3.35;;
52104;SDS011;38103;42.776;23.112;2024-03-22T05:30:32;6.35;;;3.80;;
52104;SDS011;38103;42.776;23.112;2024-03-22T05:32:58;7.47;;;3.33;;
52104;SDS011;38103;42.776;23.112;2024-03-22T05:35:24;5.07;;;3.00;;
52104;SDS011;38103;42.776;23.112;2024-03-22T05:37:49;7.43;;;3.00;;
52104;SDS011;38103;42.776;23.112;2024-03-22T05:40:15;5.80;;;3.58;;
52104;SDS011;38103;42.776;23.112;2024-03-22T05:42:41;4.65;;;3.10;;
52104;SDS011;38103;42.776;23.112;2024-03-22T05:45:07;6.53;;;3.28;;
52104;SDS011;38103;42.776;23.112;2024-03-22T05:47:32;8.45;;;3.53;;
52104;SDS011;38103;42.776;23.112;2024-03-22T05:49:58;4.68;;;2.85;;
52104;SDS011;38103;42.776;23.112;2024-03-22T05:54:50;5.47;;;3.08;;
52104;SDS011;38103;42.776;23.112;2024-03-22T05:57:16;4.82;;;3.17;;
52104;SDS011;38103;42.776;23.112;2024-03-22T05:59:42;4.95;;;3.63;;
52104;SDS011;38103;42.776;23.112;2024-03-22T06:02:07;7.82;;;3.83;;
52104;SDS011;38103;42.776;23.112;2024-03-22T06:04:32;5.72;;;3.85;;
52104;SDS011;38103;42.776;23.112;2024-03-22T06:06:58;5.28;;;3.30;;
52104;SDS011;38103;42.776;23.112;2024-03-22T06:09:25;6.88;;;4.15;;
52104;SDS011;38103;42.776;23.112;2024-03-22T06:12:17;5.20;;;3.78;;
52104;SDS011;38103;42.776;23.112;2024-03-22T06:14:43;6.63;;;3.88;;
52104;SDS011;38103;42.776;23.112;2024-03-22T06:17:09;13.93;;;4.32;;
52104;SDS011;38103;42.776;23.112;2024-03-22T06:19:35;7.35;;;4.32;;
52104;SDS011;38103;42.776;23.112;2024-03-22T06:22:01;8.32;;;4.25;;
52104;SDS011;38103;42.776;23.112;2024-03-22T06:24:27;11.52;;;4.68;;
52104;SDS011;38103;42.776;23.112;2024-03-22T06:26:53;7.20;;;4.35;;
52104;SDS011;38103;42.776;23.112;2024-03-22T06:29:18;6.53;;;3.88;;
52104;SDS011;38103;42.776;23.112;2024-03-22T06:31:43;7.03;;;4.50;;
52104;SDS011;38103;42.776;23.112;2024-03-22T06:34:09;11.10;;;3.85;;
52104;SDS011;38103;42.776;23.112;2024-03-22T06:36:34;5.72;;;3.80;;
52104;SDS011;38103;42.776;23.112;2024-03-22T06:38:59;5.20;;;3.90;;
52104;SDS011;38103;42.776;23.112;2024-03-22T06:41:25;4.85;;;3.63;;
52104;SDS011;38103;42.776;23.112;2024-03-22T06:43:51;4.70;;;4.15;;
52104;SDS011;38103;42.776;23.112;2024-03-22T06:46:17;5.53;;;4.15;;
52104;SDS011;38103;42.776;23.112;2024-03-22T06:48:42;9.00;;;4.68;;
52104;SDS011;38103;42.776;23.112;2024-03-22T06:51:08;6.80;;;4.53;;
52104;SDS011;38103;42.776;23.112;2024-03-22T06:53:33;7.00;;;3.90;;
52104;SDS011;38103;42.776;23.112;2024-03-22T06:55:59;7.72;;;4.55;;
52104;SDS011;38103;42.776;23.112;2024-03-22T06:58:24;8.63;;;4.70;;
52104;SDS011;38103;42.776;23.112;2024-03-22T07:00:50;6.03;;;3.60;;
52104;SDS011;38103;42.776;23.112;2024-03-22T07:03:15;8.65;;;3.88;;
52104;SDS011;38103;42.776;23.112;2024-03-22T07:05:42;9.35;;;4.22;;
52104;SDS011;38103;42.776;23.112;2024-03-22T07:08:07;12.18;;;4.90;;
52104;SDS011;38103;42.776;23.112;2024-03-22T07:10:33;6.90;;;4.95;;
52104;SDS011;38103;42.776;23.112;2024-03-22T07:12:58;10.70;;;4.75;;
52104;SDS011;38103;42.776;23.112;2024-03-22T07:15:24;7.18;;;5.07;;
52104;SDS011;38103;42.776;23.112;2024-03-22T07:17:49;7.32;;;4.00;;
52104;SDS011;38103;42.776;23.112;2024-03-22T07:20:16;9.25;;;4.90;;
52104;SDS011;38103;42.776;23.112;2024-03-22T07:22:41;6.55;;;3.92;;
52104;SDS011;38103;42.776;23.112;2024-03-22T07:25:07;8.25;;;4.05;;
52104;SDS011;38103;42.776;23.112;2024-03-22T07:27:35;5.70;;;4.22;;
52104;SDS011;38103;42.776;23.112;2024-03-22T07:30:01;8.35;;;4.78;;
52104;SDS011;38103;42.776;23.112;2024-03-22T07:32:26;8.82;;;4.80;;
52104;SDS011;38103;42.776;23.112;2024-03-22T07:34:51;6.80;;;4.20;;
52104;SDS011;38103;42.776;23.112;2024-03-22T07:37:17;9.68;;;4.63;;
52104;SDS011;38103;42.776;23.112;2024-03-22T07:39:42;8.90;;;4.20;;
52104;SDS011;38103;42.776;23.112;2024-03-22T07:42:07;7.50;;;3.50;;
52104;SDS011;38103;42.776;23.112;2024-03-22T07:44:33;7.82;;;4.53;;
52104;SDS011;38103;42.776;23.112;2024-03-22T07:46:58;6.18;;;3.50;;
52104;SDS011;38103;42.776;23.112;2024-03-22T07:49:23;6.88;;;3.92;;
52104;SDS011;38103;42.776;23.112;2024-03-22T07:51:49;6.20;;;3.75;;
52104;SDS011;38103;42.776;23.112;2024-03-22T07:54:15;7.43;;;4.32;;
52104;SDS011;38103;42.776;23.112;2024-03-22T07:56:40;7.53;;;3.65;;
52104;SDS011;38103;42.776;23.112;2024-03-22T07:59:05;4.55;;;3.47;;
52104;SDS011;38103;42.776;23.112;2024-03-22T08:01:31;15.52;;;3.70;;
52104;SDS011;38103;42.776;23.112;2024-03-22T08:03:56;4.18;;;2.97;;
52104;SDS011;38103;42.776;23.112;2024-03-22T08:06:21;32.58;;;4.57;;
52104;SDS011;38103;42.776;23.112;2024-03-22T08:08:47;4.82;;;3.55;;
52104;SDS011;38103;42.776;23.112;2024-03-22T08:11:12;5.07;;;3.72;;
52104;SDS011;38103;42.776;23.112;2024-03-22T08:13:37;6.72;;;3.38;;
52104;SDS011;38103;42.776;23.112;2024-03-22T08:16:03;5.60;;;3.50;;
52104;SDS011;38103;42.776;23.112;2024-03-22T08:18:29;3.80;;;2.70;;
52104;SDS011;38103;42.776;23.112;2024-03-22T08:20:54;5.00;;;3.65;;
52104;SDS011;38103;42.776;23.112;2024-03-22T08:23:20;6.22;;;3.83;;
52104;SDS011;38103;42.776;23.112;2024-03-22T08:25:47;6.30;;;3.38;;
52104;SDS011;38103;42.776;23.112;2024-03-22T08:28:13;4.93;;;2.92;;
52104;SDS011;38103;42.776;23.112;2024-03-22T08:30:38;3.25;;;2.95;;
52104;SDS011;38103;42.776;23.112;2024-03-22T08:33:04;3.35;;;2.92;;
52104;SDS011;38103;42.776;23.112;2024-03-22T08:35:29;4.07;;;3.42;;
52104;SDS011;38103;42.776;23.112;2024-03-22T08:37:55;4.85;;;2.92;;
52104;SDS011;38103;42.776;23.112;2024-03-22T08:40:21;4.28;;;3.50;;
52104;SDS011;38103;42.776;23.112;2024-03-22T08:42:46;5.10;;;3.53;;
52104;SDS011;38103;42.776;23.112;2024-03-22T08:45:12;4.63;;;3.47;;
52104;SDS011;38103;42.776;23.112;2024-03-22T08:47:37;4.03;;;3.13;;
52104;SDS011;38103;42.776;23.112;2024-03-22T08:50:03;6.82;;;3.92;;
52104;SDS011;38103;42.776;23.112;2024-03-22T08:52:28;4.10;;;3.63;;
52104;SDS011;38103;42.776;23.112;2024-03-22T08:54:55;5.28;;;3.25;;
52104;SDS011;38103;42.776;23.112;2024-03-22T08:57:20;5.68;;;3.67;;
52104;SDS011;38103;42.776;23.112;2024-03-22T08:59:47;5.05;;;3.08;;
52104;SDS011;38103;42.776;23.112;2024-03-22T09:02:12;3.65;;;2.72;;
52104;SDS011;38103;42.776;23.112;2024-03-22T09:04:38;4.75;;;3.17;;
52104;SDS011;38103;42.776;23.112;2024-03-22T09:09:29;8.13;;;3.47;;
52104;SDS011;38103;42.776;23.112;2024-03-22T09:11:55;5.70;;;4.07;;
52104;SDS011;38103;42.776;23.112;2024-03-22T09:14:20;6.22;;;3.22;;
52104;SDS011;38103;42.776;23.112;2024-03-22T09:16:45;4.85;;;3.00;;
52104;SDS011;38103;42.776;23.112;2024-03-22T09:19:11;4.78;;;3.20;;
52104;SDS011;38103;42.776;23.112;2024-03-22T09:21:36;5.75;;;2.72;;
52104;SDS011;38103;42.776;23.112;2024-03-22T09:24:02;3.85;;;3.22;;
52104;SDS011;38103;42.776;23.112;2024-03-22T09:26:28;9.73;;;3.80;;
52104;SDS011;38103;42.776;23.112;2024-03-22T09:28:53;6.72;;;2.90;;
52104;SDS011;38103;42.776;23.112;2024-03-22T09:31:19;6.82;;;2.67;;
52104;SDS011;38103;42.776;23.112;2024-03-22T09:33:45;4.15;;;2.95;;
52104;SDS011;38103;42.776;23.112;2024-03-22T09:36:10;5.38;;;2.78;;
52104;SDS011;38103;42.776;23.112;2024-03-22T09:38:35;3.28;;;2.83;;
52104;SDS011;38103;42.776;23.112;2024-03-22T09:41:01;6.28;;;3.08;;
52104;SDS011;38103;42.776;23.112;2024-03-22T09:43:26;5.90;;;3.20;;
52104;SDS011;38103;42.776;23.112;2024-03-22T09:45:52;5.32;;;2.60;;
52104;SDS011;38103;42.776;23.112;2024-03-22T09:48:19;6.38;;;2.80;;
52104;SDS011;38103;42.776;23.112;2024-03-22T09:50:48;3.78;;;2.85;;
52104;SDS011;38103;42.776;23.112;2024-03-22T09:53:17;6.97;;;2.92;;
52104;SDS011;38103;42.776;23.112;2024-03-22T09:55:45;3.90;;;2.50;;
52104;SDS011;38103;42.776;23.112;2024-03-22T09:58:11;4.97;;;2.60;;
52104;SDS011;38103;42.776;23.112;2024-03-22T10:00:37;5.25;;;3.08;;
52104;SDS011;38103;42.776;23.112;2024-03-22T10:03:03;4.10;;;2.88;;
52104;SDS011;38103;42.776;23.112;2024-03-22T10:07:54;4.28;;;2.90;;
52104;SDS011;38103;42.776;23.112;2024-03-22T10:10:20;8.38;;;3.03;;
52104;SDS011;38103;42.776;23.112;2024-03-22T10:12:46;4.80;;;2.58;;
52104;SDS011;38103;42.776;23.112;2024-03-22T10:15:11;4.40;;;3.15;;
52104;SDS011;38103;42.776;23.112;2024-03-22T10:17:38;3.30;;;2.92;;
52104;SDS011;38103;42.776;23.112;2024-03-22T10:20:04;7.18;;;3.20;;
52104;SDS011;38103;42.776;23.112;2024-03-22T10:22:34;3.17;;;2.58;;
52104;SDS011;38103;42.776;23.112;2024-03-22T10:25:00;5.10;;;2.95;;
52104;SDS011;38103;42.776;23.112;2024-03-22T10:27:26;3.42;;;2.35;;
52104;SDS011;38103;42.776;23.112;2024-03-22T10:29:54;3.45;;;2.75;;
52104;SDS011;38103;42.776;23.112;2024-03-22T10:32:19;2.78;;;2.08;;
52104;SDS011;38103;42.776;23.112;2024-03-22T10:34:46;4.45;;;2.70;;
52104;SDS011;38103;42.776;23.112;2024-03-22T10:37:12;5.00;;;2.85;;
52104;SDS011;38103;42.776;23.112;2024-03-22T10:39:40;4.47;;;2.90;;
52104;SDS011;38103;42.776;23.112;2024-03-22T10:42:07;5.22;;;2.90;;
52104;SDS011;38103;42.776;23.112;2024-03-22T10:44:32;18.33;;;3.88;;
52104;SDS011;38103;42.776;23.112;2024-03-22T10:46:58;3.95;;;2.90;;
52104;SDS011;38103;42.776;23.112;2024-03-22T10:49:26;5.32;;;3.03;;
52104;SDS011;38103;42.776;23.112;2024-03-22T10:51:56;3.20;;;2.30;;
52104;SDS011;38103;42.776;23.112;2024-03-22T10:54:26;3.95;;;2.65;;
52104;SDS011;38103;42.776;23.112;2024-03-22T10:59:23;5.20;;;2.85;;
52104;SDS011;38103;42.776;23.112;2024-03-22T11:01:49;5.15;;;3.33;;
52104;SDS011;38103;42.776;23.112;2024-03-22T11:04:15;3.58;;;2.70;;
52104;SDS011;38103;42.776;23.112;2024-03-22T11:06:46;7.20;;;3.03;;
52104;SDS011;38103;42.776;23.112;2024-03-22T11:09:17;3.58;;;3.05;;
52104;SDS011;38103;42.776;23.112;2024-03-22T11:11:43;5.63;;;3.25;;
52104;SDS011;38103;42.776;23.112;2024-03-22T11:14:09;5.15;;;2.40;;
52104;SDS011;38103;42.776;23.112;2024-03-22T11:16:35;4.82;;;2.92;;
52104;SDS011;38103;42.776;23.112;2024-03-22T11:19:00;5.30;;;2.45;;
52104;SDS011;38103;42.776;23.112;2024-03-22T11:21:25;3.92;;;2.55;;
52104;SDS011;38103;42.776;23.112;2024-03-22T11:23:51;5.18;;;2.30;;
52104;SDS011;38103;42.776;23.112;2024-03-22T11:26:16;5.35;;;2.72;;
52104;SDS011;38103;42.776;23.112;2024-03-22T11:28:42;4.70;;;2.85;;
52104;SDS011;38103;42.776;23.112;2024-03-22T11:31:08;3.15;;;2.85;;
52104;SDS011;38103;42.776;23.112;2024-03-22T11:33:33;3.53;;;2.70;;
52104;SDS011;38103;42.776;23.112;2024-03-22T11:35:59;4.60;;;3.22;;
52104;SDS011;38103;42.776;23.112;2024-03-22T11:38:26;5.88;;;3.50;;
52104;SDS011;38103;42.776;23.112;2024-03-22T11:40:52;5.32;;;2.38;;
52104;SDS011;38103;42.776;23.112;2024-03-22T11:43:18;5.95;;;3.72;;
52104;SDS011;38103;42.776;23.112;2024-03-22T11:45:44;5.68;;;3.28;;
52104;SDS011;38103;42.776;23.112;2024-03-22T11:48:10;5.90;;;3.10;;
52104;SDS011;38103;42.776;23.112;2024-03-22T11:50:36;2.85;;;2.20;;
52104;SDS011;38103;42.776;23.112;2024-03-22T11:53:04;3.65;;;2.80;;
52104;SDS011;38103;42.776;23.112;2024-03-22T11:55:30;3.67;;;2.67;;
52104;SDS011;38103;42.776;23.112;2024-03-22T11:57:57;3.65;;;2.60;;
52104;SDS011;38103;42.776;23.112;2024-03-22T12:00:22;3.75;;;2.75;;
52104;SDS011;38103;42.776;23.112;2024-03-22T12:02:50;3.85;;;2.70;;
52104;SDS011;38103;42.776;23.112;2024-03-22T12:05:16;3.10;;;2.35;;
52104;SDS011;38103;42.776;23.112;2024-03-22T12:07:42;3.05;;;2.55;;
52104;SDS011;38103;42.776;23.112;2024-03-22T12:10:09;3.28;;;2.10;;
52104;SDS011;38103;42.776;23.112;2024-03-22T12:12:34;6.95;;;3.00;;
52104;SDS011;38103;42.776;23.112;2024-03-22T12:15:01;2.88;;;2.30;;
52104;SDS011;38103;42.776;23.112;2024-03-22T12:17:27;2.88;;;2.20;;
52104;SDS011;38103;42.776;23.112;2024-03-22T12:19:52;4.15;;;2.92;;
52104;SDS011;38103;42.776;23.112;2024-03-22T12:22:18;2.88;;;2.50;;
52104;SDS011;38103;42.776;23.112;2024-03-22T12:24:43;4.63;;;2.72;;
52104;SDS011;38103;42.776;23.112;2024-03-22T12:27:08;5.40;;;3.00;;
52104;SDS011;38103;42.776;23.112;2024-03-22T12:29:34;3.65;;;2.65;;
52104;SDS011;38103;42.776;23.112;2024-03-22T12:32:00;3.60;;;2.78;;
52104;SDS011;38103;42.776;23.112;2024-03-22T12:34:28;5.50;;;2.58;;
52104;SDS011;38103;42.776;23.112;2024-03-22T12:36:55;4.30;;;2.53;;
52104;SDS011;38103;42.776;23.112;2024-03-22T12:39:21;3.17;;;2.30;;
52104;SDS011;38103;42.776;23.112;2024-03-22T12:41:47;4.03;;;2.65;;
52104;SDS011;38103;42.776;23.112;2024-03-22T12:44:12;5.05;;;2.83;;
52104;SDS011;38103;42.776;23.112;2024-03-22T12:46:38;5.35;;;2.92;;
52104;SDS011;38103;42.776;23.112;2024-03-22T12:49:03;3.22;;;2.38;;
52104;SDS011;38103;42.776;23.112;2024-03-22T12:51:29;3.65;;;2.38;;
52104;SDS011;38103;42.776;23.112;2024-03-22T12:53:55;4.45;;;3.03;;
52104;SDS011;38103;42.776;23.112;2024-03-22T12:56:20;3.25;;;2.60;;
52104;SDS011;38103;42.776;23.112;2024-03-22T12:58:46;2.83;;;2.30;;
52104;SDS011;38103;42.776;23.112;2024-03-22T13:01:12;3.40;;;2.33;;
52104;SDS011;38103;42.776;23.112;2024-03-22T13:03:37;3.83;;;2.47;;
52104;SDS011;38103;42.776;23.112;2024-03-22T13:06:03;3.88;;;2.65;;
52104;SDS011;38103;42.776;23.112;2024-03-22T13:08:30;2.42;;;2.22;;
52104;SDS011;38103;42.776;23.112;2024-03-22T13:10:56;3.45;;;3.08;;
52104;SDS011;38103;42.776;23.112;2024-03-22T13:13:21;4.60;;;2.22;;
52104;SDS011;38103;42.776;23.112;2024-03-22T13:15:46;5.70;;;2.80;;
52104;SDS011;38103;42.776;23.112;2024-03-22T13:18:12;4.20;;;2.80;;
52104;SDS011;38103;42.776;23.112;2024-03-22T13:20:38;3.53;;;2.90;;
52104;SDS011;38103;42.776;23.112;2024-03-22T13:23:04;3.78;;;2.85;;
52104;SDS011;38103;42.776;23.112;2024-03-22T13:25:29;5.15;;;2.88;;
52104;SDS011;38103;42.776;23.112;2024-03-22T13:27:55;3.40;;;2.83;;
52104;SDS011;38103;42.776;23.112;2024-03-22T13:30:21;4.65;;;2.72;;
52104;SDS011;38103;42.776;23.112;2024-03-22T13:32:46;4.65;;;2.83;;
52104;SDS011;38103;42.776;23.112;2024-03-22T13:35:12;3.17;;;2.55;;
52104;SDS011;38103;42.776;23.112;2024-03-22T13:37:38;4.57;;;3.15;;
52104;SDS011;38103;42.776;23.112;2024-03-22T13:40:04;4.10;;;2.83;;
52104;SDS011;38103;42.776;23.112;2024-03-22T13:42:30;2.78;;;2.33;;
52104;SDS011;38103;42.776;23.112;2024-03-22T13:44:55;6.47;;;2.47;;
52104;SDS011;38103;42.776;23.112;2024-03-22T13:47:22;4.03;;;2.70;;
52104;SDS011;38103;42.776;23.112;2024-03-22T13:49:47;3.78;;;2.60;;
52104;SDS011;38103;42.776;23.112;2024-03-22T13:52:12;3.13;;;2.03;;
52104;SDS011;38103;42.776;23.112;2024-03-22T13:54:38;6.28;;;2.50;;
52104;SDS011;38103;42.776;23.112;2024-03-22T13:57:03;4.38;;;2.70;;
52104;SDS011;38103;42.776;23.112;2024-03-22T13:59:29;4.18;;;2.80;;
52104;SDS011;38103;42.776;23.112;2024-03-22T14:01:55;4.28;;;2.42;;
52104;SDS011;38103;42.776;23.112;2024-03-22T14:04:21;6.63;;;3.17;;
52104;SDS011;38103;42.776;23.112;2024-03-22T14:06:51;5.10;;;2.95;;
52104;SDS011;38103;42.776;23.112;2024-03-22T14:09:17;3.58;;;2.78;;
52104;SDS011;38103;42.776;23.112;2024-03-22T14:11:42;3.22;;;2.40;;
52104;SDS011;38103;42.776;23.112;2024-03-22T14:14:11;6.13;;;2.97;;
52104;SDS011;38103;42.776;23.112;2024-03-22T14:16:39;3.13;;;2.72;;
52104;SDS011;38103;42.776;23.112;2024-03-22T14:19:06;3.78;;;2.50;;
52104;SDS011;38103;42.776;23.112;2024-03-22T14:21:32;5.47;;;3.05;;
52104;SDS011;38103;42.776;23.112;2024-03-22T14:23:57;3.35;;;2.85;;
52104;SDS011;38103;42.776;23.112;2024-03-22T14:26:23;4.50;;;2.80;;
52104;SDS011;38103;42.776;23.112;2024-03-22T14:28:51;4.07;;;2.63;;
52104;SDS011;38103;42.776;23.112;2024-03-22T14:33:43;5.00;;;2.80;;
52104;SDS011;38103;42.776;23.112;2024-03-22T14:36:08;3.25;;;2.95;;